sensor_id;sensor_type;location;lat;lon;timestamp;pressure;altitude;pressure_sealevel;temperature;humidity
40998;BME280;26740;45.944;12.480;2022-08-16T00:02:13;100562.09;;;20.41;100.00
40998;BME280;26740;45.944;12.480;2022-08-16T00:04:39;100556.63;;;20.44;100.00
40998;BME280;26740;45.944;12.480;2022-08-16T00:07:05;100551.97;;;20.40;100.00
40998;BME280;26740;45.944;12.480;2022-08-16T00:09:31;100541.97;;;20.25;100.00
40998;BME280;26740;45.944;12.480;2022-08-16T00:11:56;100541.81;;;20.30;100.00
40998;BME280;26740;45.944;12.480;2022-08-16T00:14:28;100526.53;;;20.22;100.00
40998;BME280;26740;45.944;12.480;2022-08-16T00:16:54;100526.50;;;20.14;100.00
40998;BME280;26740;45.944;12.480;2022-08-16T00:19:24;100519.28;;;19.99;100.00
40998;BME280;26740;45.944;12.480;2022-08-16T00:21:51;100514.97;;;19.93;100.00
40998;BME280;26740;45.944;12.480;2022-08-16T00:24:17;100494.84;;;19.77;100.00
40998;BME280;26740;45.944;12.480;2022-08-16T00:26:43;100492.53;;;19.79;100.00
40998;BME280;26740;45.944;12.480;2022-08-16T00:29:10;100487.84;;;19.74;100.00
40998;BME280;26740;45.944;12.480;2022-08-16T00:31:36;100481.75;;;19.58;100.00
40998;BME280;26740;45.944;12.480;2022-08-16T00:34:02;100489.91;;;19.60;100.00
40998;BME280;26740;45.944;12.480;2022-08-16T00:36:28;100495.03;;;19.80;100.00
40998;BME280;26740;45.944;12.480;2022-08-16T00:38:53;100491.81;;;19.73;100.00
40998;BME280;26740;45.944;12.480;2022-08-16T00:41:19;100491.94;;;19.68;100.00
40998;BME280;26740;45.944;12.480;2022-08-16T00:43:45;100506.16;;;19.40;100.00
40998;BME280;26740;45.944;12.480;2022-08-16T00:46:21;100499.72;;;19.40;100.00
40998;BME280;26740;45.944;12.480;2022-08-16T00:48:49;100502.72;;;19.43;100.00
40998;BME280;26740;45.944;12.480;2022-08-16T00:51:17;100497.22;;;19.38;100.00
40998;BME280;26740;45.944;12.480;2022-08-16T00:53:45;100500.91;;;19.70;100.00
40998;BME280;26740;45.944;12.480;2022-08-16T00:56:15;100502.31;;;19.81;100.00
40998;BME280;26740;45.944;12.480;2022-08-16T00:58:44;100497.66;;;19.77;100.00
40998;BME280;26740;45.944;12.480;2022-08-16T01:01:11;100496.97;;;19.80;100.00
40998;BME280;26740;45.944;12.480;2022-08-16T01:03:40;100508.47;;;19.92;100.00
40998;BME280;26740;45.944;12.480;2022-08-16T01:06:07;100514.66;;;20.03;100.00
40998;BME280;26740;45.944;12.480;2022-08-16T01:08:35;100518.94;;;19.92;100.00
40998;BME280;26740;45.944;12.480;2022-08-16T01:11:02;100531.84;;;19.84;100.00
40998;BME280;26740;45.944;12.480;2022-08-16T01:13:31;100524.69;;;19.86;100.00
40998;BME280;26740;45.944;12.480;2022-08-16T01:16:00;100531.84;;;19.84;100.00
40998;BME280;26740;45.944;12.480;2022-08-16T01:18:38;100522.06;;;19.67;100.00
40998;BME280;26740;45.944;12.480;2022-08-16T01:24:24;100511.97;;;19.66;100.00
40998;BME280;26740;45.944;12.480;2022-08-16T01:26:55;100516.09;;;19.38;100.00
40998;BME280;26740;45.944;12.480;2022-08-16T01:29:31;100523.94;;;19.27;100.00
40998;BME280;26740;45.944;12.480;2022-08-16T01:31:58;100517.63;;;19.21;100.00
40998;BME280;26740;45.944;12.480;2022-08-16T01:34:24;100523.63;;;19.28;100.00
40998;BME280;26740;45.944;12.480;2022-08-16T01:36:57;100511.47;;;19.19;100.00
40998;BME280;26740;45.944;12.480;2022-08-16T01:39:23;100501.91;;;19.20;100.00
40998;BME280;26740;45.944;12.480;2022-08-16T01:41:49;100502.22;;;19.19;100.00
40998;BME280;26740;45.944;12.480;2022-08-16T01:44:14;100490.75;;;19.15;100.00
40998;BME280;26740;45.944;12.480;2022-08-16T01:46:45;100482.50;;;19.19;100.00
40998;BME280;26740;45.944;12.480;2022-08-16T01:49:18;100488.97;;;19.19;100.00
40998;BME280;26740;45.944;12.480;2022-08-16T01:51:47;100488.84;;;19.24;100.00
40998;BME280;26740;45.944;12.480;2022-08-16T01:54:15;100481.84;;;19.22;100.00
40998;BME280;26740;45.944;12.480;2022-08-16T01:56:41;100472.91;;;19.20;100.00
40998;BME280;26740;45.944;12.480;2022-08-16T01:59:11;100467.47;;;19.23;100.00
40998;BME280;26740;45.944;12.480;2022-08-16T02:01:38;100456.72;;;19.25;100.00
40998;BME280;26740;45.944;12.480;2022-08-16T02:04:05;100443.47;;;19.26;100.00
40998;BME280;26740;45.944;12.480;2022-08-16T02:06:31;100436.03;;;19.30;100.00
40998;BME280;26740;45.944;12.480;2022-08-16T02:08:56;100432.09;;;19.31;100.00
40998;BME280;26740;45.944;12.480;2022-08-16T02:11:23;100440.59;;;19.40;100.00
40998;BME280;26740;45.944;12.480;2022-08-16T02:13:50;100442.94;;;19.46;100.00
40998;BME280;26740;45.944;12.480;2022-08-16T02:16:16;100441.31;;;19.54;100.00
40998;BME280;26740;45.944;12.480;2022-08-16T02:18:41;100439.38;;;19.63;100.00
40998;BME280;26740;45.944;12.480;2022-08-16T02:21:09;100442.63;;;19.79;100.00
40998;BME280;26740;45.944;12.480;2022-08-16T02:23:36;100437.34;;;19.86;100.00
40998;BME280;26740;45.944;12.480;2022-08-16T02:26:03;100437.34;;;19.86;100.00
40998;BME280;26740;45.944;12.480;2022-08-16T02:28:30;100431.25;;;19.93;100.00
40998;BME280;26740;45.944;12.480;2022-08-16T02:30:58;100438.91;;;20.01;100.00
40998;BME280;26740;45.944;12.480;2022-08-16T02:33:25;100434.94;;;20.02;100.00
40998;BME280;26740;45.944;12.480;2022-08-16T02:35:51;100435.22;;;19.92;100.00
40998;BME280;26740;45.944;12.480;2022-08-16T02:38:17;100444.84;;;19.91;100.00
40998;BME280;26740;45.944;12.480;2022-08-16T02:40:42;100434.72;;;19.90;100.00
40998;BME280;26740;45.944;12.480;2022-08-16T02:43:08;100417.13;;;19.84;100.00
40998;BME280;26740;45.944;12.480;2022-08-16T02:45:34;100425.41;;;19.81;100.00
40998;BME280;26740;45.944;12.480;2022-08-16T02:48:00;100418.56;;;19.73;100.00
40998;BME280;26740;45.944;12.480;2022-08-16T02:50:26;100424.16;;;19.64;100.00
40998;BME280;26740;45.944;12.480;2022-08-16T02:52:52;100431.44;;;19.65;100.00
40998;BME280;26740;45.944;12.480;2022-08-16T02:55:19;100435.69;;;19.54;100.00
40998;BME280;26740;45.944;12.480;2022-08-16T02:57:45;100438.25;;;19.64;100.00
40998;BME280;26740;45.944;12.480;2022-08-16T03:00:13;100435.19;;;19.52;100.00
40998;BME280;26740;45.944;12.480;2022-08-16T03:02:40;100420.25;;;19.51;100.00
40998;BME280;26740;45.944;12.480;2022-08-16T03:05:07;100415.44;;;19.43;100.00
40998;BME280;26740;45.944;12.480;2022-08-16T03:07:34;100426.78;;;19.61;100.00
40998;BME280;26740;45.944;12.480;2022-08-16T03:10:01;100418.16;;;19.57;100.00
40998;BME280;26740;45.944;12.480;2022-08-16T03:12:26;100421.75;;;19.49;100.00
40998;BME280;26740;45.944;12.480;2022-08-16T03:14:52;100435.50;;;19.50;100.00
40998;BME280;26740;45.944;12.480;2022-08-16T03:17:18;100437.66;;;19.45;100.00
40998;BME280;26740;45.944;12.480;2022-08-16T03:19:44;100449.28;;;19.52;100.00
40998;BME280;26740;45.944;12.480;2022-08-16T03:22:09;100438.91;;;19.39;100.00
40998;BME280;26740;45.944;12.480;2022-08-16T03:24:35;100448.97;;;19.31;100.00
40998;BME280;26740;45.944;12.480;2022-08-16T03:27:02;100451.78;;;19.31;100.00
40998;BME280;26740;45.944;12.480;2022-08-16T03:29:30;100459.25;;;19.36;100.00
40998;BME280;26740;45.944;12.480;2022-08-16T03:31:58;100465.19;;;19.25;100.00
40998;BME280;26740;45.944;12.480;2022-08-16T03:34:24;100465.94;;;19.17;100.00
40998;BME280;26740;45.944;12.480;2022-08-16T03:36:50;100468.38;;;19.10;100.00
40998;BME280;26740;45.944;12.480;2022-08-16T03:39:15;100467.59;;;19.18;100.00
40998;BME280;26740;45.944;12.480;2022-08-16T03:41:41;100478.25;;;19.07;100.00
40998;BME280;26740;45.944;12.480;2022-08-16T03:44:08;100487.50;;;18.99;100.00
40998;BME280;26740;45.944;12.480;2022-08-16T03:46:34;100478.53;;;18.97;100.00
40998;BME280;26740;45.944;12.480;2022-08-16T03:49:00;100474.09;;;18.82;100.00
40998;BME280;26740;45.944;12.480;2022-08-16T03:51:26;100472.13;;;18.69;100.00
40998;BME280;26740;45.944;12.480;2022-08-16T03:53:52;100480.03;;;18.67;100.00
40998;BME280;26740;45.944;12.480;2022-08-16T03:56:18;100485.66;;;18.67;100.00
40998;BME280;26740;45.944;12.480;2022-08-16T03:58:44;100486.53;;;18.53;100.00
40998;BME280;26740;45.944;12.480;2022-08-16T04:01:11;100490.69;;;18.42;100.00
40998;BME280;26740;45.944;12.480;2022-08-16T04:03:37;100501.34;;;18.31;100.00
40998;BME280;26740;45.944;12.480;2022-08-16T04:06:03;100498.31;;;18.28;100.00
40998;BME280;26740;45.944;12.480;2022-08-16T04:08:29;100502.16;;;18.46;100.00
40998;BME280;26740;45.944;12.480;2022-08-16T04:10:56;100495.31;;;18.38;100.00
40998;BME280;26740;45.944;12.480;2022-08-16T04:13:22;100503.84;;;18.33;100.00
40998;BME280;26740;45.944;12.480;2022-08-16T04:15:48;100514.97;;;18.38;100.00
40998;BME280;26740;45.944;12.480;2022-08-16T04:18:15;100528.63;;;18.45;100.00
40998;BME280;26740;45.944;12.480;2022-08-16T04:20:42;100530.16;;;18.51;100.00
40998;BME280;26740;45.944;12.480;2022-08-16T04:23:08;100528.19;;;18.51;100.00
40998;BME280;26740;45.944;12.480;2022-08-16T04:25:34;100521.84;;;18.46;100.00
40998;BME280;26740;45.944;12.480;2022-08-16T04:28:00;100536.09;;;18.49;100.00
40998;BME280;26740;45.944;12.480;2022-08-16T04:30:26;100537.25;;;18.48;100.00
40998;BME280;26740;45.944;12.480;2022-08-16T04:32:52;100540.38;;;18.61;100.00
40998;BME280;26740;45.944;12.480;2022-08-16T04:35:20;100542.56;;;18.64;100.00
40998;BME280;26740;45.944;12.480;2022-08-16T04:37:47;100541.31;;;18.56;100.00
40998;BME280;26740;45.944;12.480;2022-08-16T04:40:14;100531.22;;;18.55;100.00
40998;BME280;26740;45.944;12.480;2022-08-16T04:42:41;100536.19;;;18.58;100.00
40998;BME280;26740;45.944;12.480;2022-08-16T04:45:09;100527.66;;;18.63;100.00
40998;BME280;26740;45.944;12.480;2022-08-16T04:47:36;100532.72;;;18.75;100.00
40998;BME280;26740;45.944;12.480;2022-08-16T04:50:08;100534.63;;;18.80;100.00
40998;BME280;26740;45.944;12.480;2022-08-16T04:52:36;100539.75;;;18.64;100.00
40998;BME280;26740;45.944;12.480;2022-08-16T04:55:15;100548.41;;;18.53;100.00
40998;BME280;26740;45.944;12.480;2022-08-16T04:57:42;100546.50;;;18.76;100.00
40998;BME280;26740;45.944;12.480;2022-08-16T05:00:17;100557.75;;;18.90;100.00
40998;BME280;26740;45.944;12.480;2022-08-16T05:02:44;100546.09;;;19.20;100.00
40998;BME280;26740;45.944;12.480;2022-08-16T05:05:11;100553.09;;;19.45;100.00
40998;BME280;26740;45.944;12.480;2022-08-16T05:07:38;100550.16;;;20.04;100.00
40998;BME280;26740;45.944;12.480;2022-08-16T05:10:06;100550.97;;;20.36;100.00
40998;BME280;26740;45.944;12.480;2022-08-16T05:12:33;100560.44;;;21.06;100.00
40998;BME280;26740;45.944;12.480;2022-08-16T05:14:59;100562.13;;;21.51;100.00
40998;BME280;26740;45.944;12.480;2022-08-16T05:17:25;100562.91;;;22.42;100.00
40998;BME280;26740;45.944;12.480;2022-08-16T05:19:51;100566.88;;;23.09;100.00
40998;BME280;26740;45.944;12.480;2022-08-16T05:22:17;100575.81;;;23.75;100.00
40998;BME280;26740;45.944;12.480;2022-08-16T05:24:43;100570.84;;;24.05;100.00
40998;BME280;26740;45.944;12.480;2022-08-16T05:27:08;100561.25;;;24.55;100.00
40998;BME280;26740;45.944;12.480;2022-08-16T05:29:34;100560.59;;;25.11;100.00
40998;BME280;26740;45.944;12.480;2022-08-16T05:32:00;100576.16;;;25.42;100.00
40998;BME280;26740;45.944;12.480;2022-08-16T05:34:27;100581.28;;;25.93;100.00
40998;BME280;26740;45.944;12.480;2022-08-16T05:36:53;100582.34;;;26.17;100.00
40998;BME280;26740;45.944;12.480;2022-08-16T05:39:23;100581.81;;;26.75;100.00
40998;BME280;26740;45.944;12.480;2022-08-16T05:41:50;100589.06;;;27.23;100.00
40998;BME280;26740;45.944;12.480;2022-08-16T05:44:17;100582.81;;;27.34;100.00
40998;BME280;26740;45.944;12.480;2022-08-16T05:46:43;100600.03;;;27.21;100.00
40998;BME280;26740;45.944;12.480;2022-08-16T05:49:11;100605.31;;;27.39;100.00
40998;BME280;26740;45.944;12.480;2022-08-16T05:51:45;100604.25;;;27.86;100.00
40998;BME280;26740;45.944;12.480;2022-08-16T05:54:13;100608.59;;;27.96;100.00
40998;BME280;26740;45.944;12.480;2022-08-16T05:56:42;100605.41;;;27.82;100.00
40998;BME280;26740;45.944;12.480;2022-08-16T05:59:11;100609.75;;;28.14;100.00
40998;BME280;26740;45.944;12.480;2022-08-16T06:01:38;100609.00;;;28.17;100.00
40998;BME280;26740;45.944;12.480;2022-08-16T06:04:06;100611.25;;;28.74;100.00
40998;BME280;26740;45.944;12.480;2022-08-16T06:06:32;100611.81;;;29.37;100.00
40998;BME280;26740;45.944;12.480;2022-08-16T06:08:58;100623.72;;;29.73;100.00
40998;BME280;26740;45.944;12.480;2022-08-16T06:11:24;100624.97;;;30.05;100.00
40998;BME280;26740;45.944;12.480;2022-08-16T06:13:50;100624.06;;;29.98;100.00
40998;BME280;26740;45.944;12.480;2022-08-16T06:16:15;100630.22;;;30.00;100.00
40998;BME280;26740;45.944;12.480;2022-08-16T06:18:41;100630.31;;;30.45;100.00
40998;BME280;26740;45.944;12.480;2022-08-16T06:21:10;100624.16;;;30.42;100.00
40998;BME280;26740;45.944;12.480;2022-08-16T06:23:36;100640.41;;;31.24;100.00
40998;BME280;26740;45.944;12.480;2022-08-16T06:26:03;100637.31;;;31.51;100.00
40998;BME280;26740;45.944;12.480;2022-08-16T06:28:30;100628.88;;;31.94;100.00
40998;BME280;26740;45.944;12.480;2022-08-16T06:30:56;100629.66;;;31.80;99.25
40998;BME280;26740;45.944;12.480;2022-08-16T06:33:22;100628.44;;;31.85;97.40
40998;BME280;26740;45.944;12.480;2022-08-16T06:35:47;100629.69;;;31.87;99.70
40998;BME280;26740;45.944;12.480;2022-08-16T06:38:13;100635.09;;;32.03;98.90
40998;BME280;26740;45.944;12.480;2022-08-16T06:40:39;100635.56;;;32.12;98.81
40998;BME280;26740;45.944;12.480;2022-08-16T06:43:06;100638.06;;;32.43;99.92
40998;BME280;26740;45.944;12.480;2022-08-16T06:45:32;100634.75;;;32.16;85.80
40998;BME280;26740;45.944;12.480;2022-08-16T06:48:05;100636.22;;;31.77;85.75
40998;BME280;26740;45.944;12.480;2022-08-16T06:50:32;100648.91;;;31.76;83.21
40998;BME280;26740;45.944;12.480;2022-08-16T06:52:58;100641.22;;;31.98;81.73
40998;BME280;26740;45.944;12.480;2022-08-16T06:55:26;100653.63;;;32.24;68.01
40998;BME280;26740;45.944;12.480;2022-08-16T06:57:53;100648.34;;;32.51;69.45
40998;BME280;26740;45.944;12.480;2022-08-16T07:00:19;100647.13;;;32.56;65.13
40998;BME280;26740;45.944;12.480;2022-08-16T07:02:45;100648.75;;;32.35;65.50
40998;BME280;26740;45.944;12.480;2022-08-16T07:05:13;100646.31;;;32.59;64.19
40998;BME280;26740;45.944;12.480;2022-08-16T07:07:40;100659.09;;;32.72;59.72
40998;BME280;26740;45.944;12.480;2022-08-16T07:10:08;100649.97;;;32.52;59.28
40998;BME280;26740;45.944;12.480;2022-08-16T07:12:35;100648.41;;;32.87;61.04
40998;BME280;26740;45.944;12.480;2022-08-16T07:15:01;100649.22;;;32.69;59.05
40998;BME280;26740;45.944;12.480;2022-08-16T07:17:28;100652.44;;;32.54;60.54
40998;BME280;26740;45.944;12.480;2022-08-16T07:19:55;100648.41;;;32.80;62.29
40998;BME280;26740;45.944;12.480;2022-08-16T07:22:21;100645.94;;;32.78;59.23
40998;BME280;26740;45.944;12.480;2022-08-16T07:24:47;100650.84;;;32.96;63.18
40998;BME280;26740;45.944;12.480;2022-08-16T07:27:13;100644.72;;;32.76;57.26
40998;BME280;26740;45.944;12.480;2022-08-16T07:29:39;100653.75;;;32.67;56.48
40998;BME280;26740;45.944;12.480;2022-08-16T07:32:05;100659.91;;;32.98;56.95
40998;BME280;26740;45.944;12.480;2022-08-16T07:34:31;100659.06;;;33.26;50.50
40998;BME280;26740;45.944;12.480;2022-08-16T07:36:58;100660.66;;;33.52;52.48
40998;BME280;26740;45.944;12.480;2022-08-16T07:39:25;100671.81;;;33.39;47.84
40998;BME280;26740;45.944;12.480;2022-08-16T07:41:50;100669.75;;;33.33;53.74
40998;BME280;26740;45.944;12.480;2022-08-16T07:44:16;100662.75;;;33.44;50.90
40998;BME280;26740;45.944;12.480;2022-08-16T07:46:42;100661.97;;;32.90;50.78
40998;BME280;26740;45.944;12.480;2022-08-16T07:49:07;100659.44;;;33.53;52.96
40998;BME280;26740;45.944;12.480;2022-08-16T07:51:34;100664.22;;;33.99;50.63
40998;BME280;26740;45.944;12.480;2022-08-16T07:54:03;100655.22;;;33.83;47.34
40998;BME280;26740;45.944;12.480;2022-08-16T07:56:29;100669.91;;;34.14;46.83
40998;BME280;26740;45.944;12.480;2022-08-16T07:58:55;100661.47;;;34.52;53.21
40998;BME280;26740;45.944;12.480;2022-08-16T08:01:21;100657.56;;;34.80;49.10
40998;BME280;26740;45.944;12.480;2022-08-16T08:03:48;100654.72;;;34.77;46.84
40998;BME280;26740;45.944;12.480;2022-08-16T08:06:16;100661.22;;;34.28;43.73
40998;BME280;26740;45.944;12.480;2022-08-16T08:08:42;100652.97;;;34.30;47.15
40998;BME280;26740;45.944;12.480;2022-08-16T08:11:08;100655.94;;;34.09;46.78
40998;BME280;26740;45.944;12.480;2022-08-16T08:13:34;100657.88;;;34.93;48.02
40998;BME280;26740;45.944;12.480;2022-08-16T08:16:00;100661.81;;;34.61;46.76
40998;BME280;26740;45.944;12.480;2022-08-16T08:18:26;100657.78;;;33.52;47.27
40998;BME280;26740;45.944;12.480;2022-08-16T08:20:51;100659.09;;;34.36;46.08
40998;BME280;26740;45.944;12.480;2022-08-16T08:23:17;100668.78;;;35.23;47.15
40998;BME280;26740;45.944;12.480;2022-08-16T08:25:45;100660.72;;;35.42;45.07
40998;BME280;26740;45.944;12.480;2022-08-16T08:28:11;100669.31;;;35.49;44.53
40998;BME280;26740;45.944;12.480;2022-08-16T08:30:37;100673.75;;;35.57;44.40
40998;BME280;26740;45.944;12.480;2022-08-16T08:33:03;100675.16;;;36.45;44.84
40998;BME280;26740;45.944;12.480;2022-08-16T08:35:29;100670.78;;;36.33;41.13
40998;BME280;26740;45.944;12.480;2022-08-16T08:37:54;100663.50;;;37.03;42.23
40998;BME280;26740;45.944;12.480;2022-08-16T08:40:22;100662.13;;;37.55;39.23
40998;BME280;26740;45.944;12.480;2022-08-16T08:42:48;100665.19;;;36.77;38.59
40998;BME280;26740;45.944;12.480;2022-08-16T08:45:13;100672.38;;;36.38;40.84
40998;BME280;26740;45.944;12.480;2022-08-16T08:47:42;100666.34;;;37.74;43.00
40998;BME280;26740;45.944;12.480;2022-08-16T08:50:09;100669.94;;;37.58;41.07
40998;BME280;26740;45.944;12.480;2022-08-16T08:52:34;100669.31;;;37.47;38.13
40998;BME280;26740;45.944;12.480;2022-08-16T08:55:04;100669.78;;;37.45;39.46
40998;BME280;26740;45.944;12.480;2022-08-16T08:57:30;100671.88;;;36.97;36.56
40998;BME280;26740;45.944;12.480;2022-08-16T08:59:56;100673.25;;;37.13;36.19
40998;BME280;26740;45.944;12.480;2022-08-16T09:02:22;100679.34;;;35.75;36.56
40998;BME280;26740;45.944;12.480;2022-08-16T09:04:47;100662.28;;;36.77;43.06
40998;BME280;26740;45.944;12.480;2022-08-16T09:07:13;100670.34;;;37.80;36.42
40998;BME280;26740;45.944;12.480;2022-08-16T09:09:39;100666.63;;;37.80;36.59
40998;BME280;26740;45.944;12.480;2022-08-16T09:12:05;100662.50;;;37.57;38.27
40998;BME280;26740;45.944;12.480;2022-08-16T09:14:34;100659.16;;;35.37;42.00
40998;BME280;26740;45.944;12.480;2022-08-16T09:16:59;100665.31;;;34.90;40.40
40998;BME280;26740;45.944;12.480;2022-08-16T09:19:25;100668.00;;;36.53;42.54
40998;BME280;26740;45.944;12.480;2022-08-16T09:21:51;100667.84;;;36.91;36.55
40998;BME280;26740;45.944;12.480;2022-08-16T09:24:17;100671.59;;;36.03;38.34
40998;BME280;26740;45.944;12.480;2022-08-16T09:26:43;100672.53;;;35.13;39.67
40998;BME280;26740;45.944;12.480;2022-08-16T09:29:09;100670.63;;;34.36;45.25
40998;BME280;26740;45.944;12.480;2022-08-16T09:31:34;100669.09;;;34.17;44.63
40998;BME280;26740;45.944;12.480;2022-08-16T09:34:00;100661.94;;;34.47;45.71
40998;BME280;26740;45.944;12.480;2022-08-16T09:36:27;100668.59;;;34.92;39.85
40998;BME280;26740;45.944;12.480;2022-08-16T09:38:57;100669.50;;;36.03;42.90
40998;BME280;26740;45.944;12.480;2022-08-16T09:41:23;100667.06;;;37.34;40.75
40998;BME280;26740;45.944;12.480;2022-08-16T09:43:49;100677.19;;;37.70;38.37
40998;BME280;26740;45.944;12.480;2022-08-16T09:46:14;100670.94;;;38.48;37.09
40998;BME280;26740;45.944;12.480;2022-08-16T09:48:40;100675.88;;;38.51;32.83
40998;BME280;26740;45.944;12.480;2022-08-16T09:51:08;100671.91;;;37.41;35.13
40998;BME280;26740;45.944;12.480;2022-08-16T09:53:35;100677.31;;;36.06;36.12
40998;BME280;26740;45.944;12.480;2022-08-16T09:56:07;100667.78;;;36.68;35.59
40998;BME280;26740;45.944;12.480;2022-08-16T09:58:33;100674.72;;;37.01;36.66
40998;BME280;26740;45.944;12.480;2022-08-16T10:00:59;100674.94;;;37.98;36.28
40998;BME280;26740;45.944;12.480;2022-08-16T10:03:24;100668.84;;;38.12;36.23
40998;BME280;26740;45.944;12.480;2022-08-16T10:05:50;100669.44;;;38.60;34.82
40998;BME280;26740;45.944;12.480;2022-08-16T10:08:15;100670.53;;;38.29;36.80
40998;BME280;26740;45.944;12.480;2022-08-16T10:10:42;100663.16;;;37.45;36.96
40998;BME280;26740;45.944;12.480;2022-08-16T10:13:29;100680.19;;;36.41;37.74
40998;BME280;26740;45.944;12.480;2022-08-16T10:15:55;100674.84;;;37.17;36.23
40998;BME280;26740;45.944;12.480;2022-08-16T10:18:25;100671.19;;;37.57;37.73
40998;BME280;26740;45.944;12.480;2022-08-16T10:20:53;100672.34;;;38.23;38.98
40998;BME280;26740;45.944;12.480;2022-08-16T10:23:20;100673.91;;;38.64;38.07
40998;BME280;26740;45.944;12.480;2022-08-16T10:25:47;100679.88;;;37.57;35.63
40998;BME280;26740;45.944;12.480;2022-08-16T10:28:13;100677.94;;;37.74;35.91
40998;BME280;26740;45.944;12.480;2022-08-16T10:30:40;100675.28;;;36.38;38.20
40998;BME280;26740;45.944;12.480;2022-08-16T10:33:10;100673.81;;;36.80;37.87
40998;BME280;26740;45.944;12.480;2022-08-16T10:35:38;100680.59;;;36.94;37.06
40998;BME280;26740;45.944;12.480;2022-08-16T10:38:04;100674.09;;;37.57;38.14
40998;BME280;26740;45.944;12.480;2022-08-16T10:40:30;100681.59;;;37.98;34.57
40998;BME280;26740;45.944;12.480;2022-08-16T10:42:57;100670.91;;;37.51;39.92
40998;BME280;26740;45.944;12.480;2022-08-16T10:45:28;100675.63;;;37.65;39.68
40998;BME280;26740;45.944;12.480;2022-08-16T10:47:55;100688.66;;;37.53;39.06
40998;BME280;26740;45.944;12.480;2022-08-16T10:50:21;100679.69;;;37.24;36.21
40998;BME280;26740;45.944;12.480;2022-08-16T10:52:47;100678.72;;;36.84;37.93
40998;BME280;26740;45.944;12.480;2022-08-16T10:55:13;100672.63;;;37.02;39.88
40998;BME280;26740;45.944;12.480;2022-08-16T10:57:39;100675.66;;;37.18;40.18
40998;BME280;26740;45.944;12.480;2022-08-16T11:00:11;100685.34;;;36.53;39.90
40998;BME280;26740;45.944;12.480;2022-08-16T11:02:39;100678.38;;;36.78;39.75
40998;BME280;26740;45.944;12.480;2022-08-16T11:05:08;100681.88;;;36.38;42.31
40998;BME280;26740;45.944;12.480;2022-08-16T11:07:39;100686.84;;;36.38;38.46
40998;BME280;26740;45.944;12.480;2022-08-16T11:10:05;100687.31;;;36.33;39.83
40998;BME280;26740;45.944;12.480;2022-08-16T11:12:31;100691.03;;;36.33;38.88
40998;BME280;26740;45.944;12.480;2022-08-16T11:14:57;100687.09;;;36.47;39.20
40998;BME280;26740;45.944;12.480;2022-08-16T11:17:23;100681.28;;;35.51;41.27
40998;BME280;26740;45.944;12.480;2022-08-16T11:19:48;100690.63;;;35.21;40.50
40998;BME280;26740;45.944;12.480;2022-08-16T11:22:14;100686.66;;;35.45;40.92
40998;BME280;26740;45.944;12.480;2022-08-16T11:24:40;100669.88;;;34.88;41.95
40998;BME280;26740;45.944;12.480;2022-08-16T11:27:08;100677.25;;;34.92;42.18
40998;BME280;26740;45.944;12.480;2022-08-16T11:29:34;100674.13;;;33.91;44.01
40998;BME280;26740;45.944;12.480;2022-08-16T11:32:01;100677.16;;;33.19;43.60
40998;BME280;26740;45.944;12.480;2022-08-16T11:34:30;100674.22;;;33.70;45.82
40998;BME280;26740;45.944;12.480;2022-08-16T11:36:56;100684.66;;;34.93;43.39
40998;BME280;26740;45.944;12.480;2022-08-16T11:39:22;100686.28;;;34.98;44.43
40998;BME280;26740;45.944;12.480;2022-08-16T11:41:47;100688.75;;;35.45;44.09
40998;BME280;26740;45.944;12.480;2022-08-16T11:44:13;100691.00;;;35.26;41.95
40998;BME280;26740;45.944;12.480;2022-08-16T11:46:39;100684.06;;;35.17;43.77
40998;BME280;26740;45.944;12.480;2022-08-16T11:49:05;100688.47;;;34.83;43.87
40998;BME280;26740;45.944;12.480;2022-08-16T11:51:31;100690.88;;;35.41;46.52
40998;BME280;26740;45.944;12.480;2022-08-16T11:53:56;100681.00;;;34.26;42.41
40998;BME280;26740;45.944;12.480;2022-08-16T11:56:23;100686.44;;;34.77;40.76
40998;BME280;26740;45.944;12.480;2022-08-16T11:58:49;100692.44;;;35.00;39.54
40998;BME280;26740;45.944;12.480;2022-08-16T12:01:15;100693.44;;;35.31;40.47
40998;BME280;26740;45.944;12.480;2022-08-16T12:03:41;100686.44;;;35.71;43.80
40998;BME280;26740;45.944;12.480;2022-08-16T12:06:11;100700.09;;;36.01;42.18
40998;BME280;26740;45.944;12.480;2022-08-16T12:08:38;100699.13;;;35.39;41.96
40998;BME280;26740;45.944;12.480;2022-08-16T12:11:04;100696.97;;;34.42;44.70
40998;BME280;26740;45.944;12.480;2022-08-16T12:13:31;100695.13;;;34.73;44.47
40998;BME280;26740;45.944;12.480;2022-08-16T12:15:57;100700.44;;;35.30;44.65
40998;BME280;26740;45.944;12.480;2022-08-16T12:18:24;100700.34;;;35.41;36.23
40998;BME280;26740;45.944;12.480;2022-08-16T12:20:49;100704.47;;;35.40;41.10
40998;BME280;26740;45.944;12.480;2022-08-16T12:23:15;100698.53;;;35.09;42.72
40998;BME280;26740;45.944;12.480;2022-08-16T12:25:42;100704.03;;;35.42;40.92
40998;BME280;26740;45.944;12.480;2022-08-16T12:28:08;100702.41;;;35.41;40.12
40998;BME280;26740;45.944;12.480;2022-08-16T12:30:38;100708.78;;;35.18;44.01
40998;BME280;26740;45.944;12.480;2022-08-16T12:33:06;100701.97;;;35.84;44.13
40998;BME280;26740;45.944;12.480;2022-08-16T12:35:33;100707.91;;;36.04;40.79
40998;BME280;26740;45.944;12.480;2022-08-16T12:38:00;100703.66;;;36.12;40.87